createdAt,value
2023-04-21T00:00:49.210Z,59.08
2023-04-21T00:03:17.865Z,58.55
2023-04-21T00:05:46.140Z,58.17
2023-04-21T00:08:14.108Z,59.08
2023-04-21T00:10:41.995Z,59.24
2023-04-21T00:13:10.317Z,58.69
2023-04-21T00:15:39.715Z,59.59
2023-04-21T00:18:07.820Z,59.39
2023-04-21T00:20:35.777Z,59.22
2023-04-21T00:23:04.103Z,59.00
2023-04-21T00:25:32.002Z,58.90
2023-04-21T00:27:59.910Z,59.83
2023-04-21T00:30:27.752Z,59.44
2023-04-21T00:32:57.054Z,59.64
2023-04-21T00:35:24.966Z,59.55
2023-04-21T00:37:52.947Z,59.68
2023-04-21T00:40:20.960Z,59.26
2023-04-21T00:42:48.877Z,59.09
2023-04-21T00:45:16.753Z,59.46
2023-04-21T00:47:44.791Z,59.71
2023-04-21T00:50:14.367Z,59.72
2023-04-21T00:52:44.456Z,59.55
2023-04-21T00:55:12.906Z,59.49
2023-04-21T00:57:40.948Z,58.90
2023-04-21T01:00:10.622Z,58.73
2023-04-21T01:02:40.300Z,58.93
2023-04-21T01:05:09.954Z,58.24
2023-04-21T01:07:41.154Z,58.37
2023-04-21T01:10:10.090Z,58.98
2023-04-21T01:12:44.201Z,58.83
2023-04-21T01:15:12.681Z,58.39
2023-04-21T01:17:40.548Z,58.58
2023-04-21T01:20:10.897Z,58.61
2023-04-21T01:22:41.679Z,59.79
2023-04-21T01:25:10.376Z,59.48
2023-04-21T01:27:38.624Z,58.54
2023-04-21T01:30:08.657Z,58.93
2023-04-21T01:32:37.111Z,59.06
2023-04-21T01:35:06.542Z,58.81
2023-04-21T01:37:35.115Z,58.24
2023-04-21T01:40:07.344Z,58.19
2023-04-21T01:42:36.625Z,58.07
2023-04-21T01:45:05.278Z,57.50
2023-04-21T01:47:33.247Z,58.15
2023-04-21T01:50:01.060Z,57.44
2023-04-21T01:52:28.966Z,57.82
2023-04-21T01:54:56.866Z,58.75
2023-04-21T01:57:26.119Z,58.46
2023-04-21T01:59:54.358Z,57.97
2023-04-21T02:02:22.408Z,58.77
2023-04-21T02:04:52.216Z,57.56
2023-04-21T02:07:20.168Z,57.26
2023-04-21T02:09:48.112Z,57.32
2023-04-21T02:12:16.148Z,57.18
2023-04-21T02:14:47.272Z,57.01
2023-04-21T02:17:15.445Z,57.07
2023-04-21T02:19:43.262Z,57.16
2023-04-21T02:22:12.928Z,57.67
2023-04-21T02:24:40.812Z,57.23
2023-04-21T02:27:08.676Z,57.50
2023-04-21T02:29:36.672Z,57.00
2023-04-21T02:34:39.082Z,57.42
2023-04-21T02:37:06.962Z,56.97
2023-04-21T02:39:34.786Z,57.11
2023-04-21T02:42:03.069Z,57.05
2023-04-21T02:44:31.127Z,56.70
2023-04-21T02:46:59.111Z,56.58
2023-04-21T02:49:28.312Z,56.88
2023-04-21T02:51:59.344Z,56.65
2023-04-21T02:54:27.249Z,56.88
2023-04-21T02:56:55.099Z,56.77
2023-04-21T02:59:23.057Z,57.18
2023-04-21T03:01:51.054Z,56.76
2023-04-21T03:04:19.760Z,57.13
2023-04-21T03:06:49.121Z,56.68
2023-04-21T03:09:17.013Z,56.68
2023-04-21T03:11:44.917Z,56.51
2023-04-21T03:14:13.182Z,56.47
2023-04-21T03:16:41.250Z,55.73
2023-04-21T03:19:09.189Z,56.44
2023-04-21T03:21:39.161Z,57.02
2023-04-21T03:24:08.771Z,56.21
2023-04-21T03:26:36.704Z,57.06
2023-04-21T03:29:04.569Z,57.58
2023-04-21T03:31:32.593Z,56.77
2023-04-21T03:34:00.495Z,57.35
2023-04-21T03:36:29.568Z,56.69
2023-04-21T03:39:05.958Z,57.37
2023-04-21T03:41:42.384Z,57.13
2023-04-21T03:44:10.779Z,56.89
2023-04-21T03:46:40.800Z,57.38
2023-04-21T03:49:08.669Z,56.51
2023-04-21T03:51:36.518Z,56.49
2023-04-21T03:54:04.584Z,56.94
2023-04-21T03:56:32.517Z,56.43
2023-04-21T03:59:01.694Z,56.46
2023-04-21T04:01:30.424Z,56.69
2023-04-21T04:03:58.329Z,56.87
2023-04-21T04:06:26.563Z,57.90
2023-04-21T04:08:54.380Z,56.80
2023-04-21T04:11:22.330Z,57.08
2023-04-21T04:13:50.193Z,57.52
2023-04-21T04:16:19.563Z,57.79
2023-04-21T04:18:47.446Z,57.64
2023-04-21T04:21:15.241Z,56.51
2023-04-21T04:23:44.368Z,57.83
2023-04-21T04:26:12.295Z,56.95
2023-04-21T04:28:40.354Z,57.67
2023-04-21T04:31:08.319Z,57.18
2023-04-21T04:33:37.586Z,57.16
2023-04-21T04:36:05.567Z,56.62
2023-04-21T04:38:35.501Z,56.01
2023-04-21T04:41:03.294Z,56.08
2023-04-21T04:43:33.482Z,55.75
2023-04-21T04:46:01.480Z,55.74
2023-04-21T04:48:29.321Z,55.80
2023-04-21T04:50:58.607Z,56.75
2023-04-21T04:53:26.503Z,56.89
2023-04-21T04:55:54.612Z,56.66
2023-04-21T04:58:22.671Z,56.20
2023-04-21T05:00:50.716Z,56.63
2023-04-21T05:03:19.004Z,55.47
2023-04-21T05:05:47.147Z,55.51
2023-04-21T05:08:18.013Z,56.50
2023-04-21T05:10:46.186Z,56.42
2023-04-21T05:13:14.021Z,55.89
2023-04-21T05:15:41.815Z,55.73
2023-04-21T05:18:09.694Z,55.58
2023-04-21T05:20:37.563Z,54.74
2023-04-21T05:23:05.462Z,54.96
2023-04-21T05:25:34.666Z,54.71
2023-04-21T05:28:02.478Z,54.30
2023-04-21T05:30:30.298Z,54.30
2023-04-21T05:32:58.237Z,54.94
2023-04-21T05:35:26.238Z,53.60
2023-04-21T05:37:54.085Z,54.56
2023-04-21T05:40:22.009Z,53.40
2023-04-21T05:42:51.220Z,53.75
2023-04-21T05:45:19.528Z,53.66
2023-04-21T05:47:47.486Z,51.05
2023-04-21T05:50:16.421Z,46.04
2023-04-21T05:52:44.243Z,45.33
2023-04-21T05:55:12.098Z,46.54
2023-04-21T05:57:39.960Z,47.41
2023-04-21T06:00:11.012Z,47.31
2023-04-21T06:02:39.089Z,48.26
2023-04-21T06:05:07.537Z,48.16
2023-04-21T06:07:37.970Z,48.69
2023-04-21T06:10:06.384Z,48.40
2023-04-21T06:12:34.279Z,48.53
2023-04-21T06:15:02.165Z,48.24
2023-04-21T06:17:31.482Z,48.96
2023-04-21T06:19:59.504Z,48.89
2023-04-21T06:22:28.462Z,48.99
2023-04-21T06:24:56.672Z,48.45
2023-04-21T06:27:25.388Z,48.80
2023-04-21T06:29:55.617Z,47.83
2023-04-21T06:32:23.538Z,47.34
2023-04-21T06:34:52.900Z,46.62
2023-04-21T06:37:20.699Z,46.87
2023-04-21T06:39:48.526Z,46.64
2023-04-21T06:42:16.402Z,46.35
2023-04-21T06:44:44.347Z,47.71
2023-04-21T06:47:12.231Z,47.93
2023-04-21T06:49:40.201Z,46.71
2023-04-21T06:52:09.464Z,46.63
2023-04-21T06:54:38.360Z,46.65
2023-04-21T06:57:06.662Z,46.78
2023-04-21T06:59:35.097Z,47.71
2023-04-21T07:02:03.031Z,46.37
2023-04-21T07:04:32.328Z,46.87
2023-04-21T07:07:03.012Z,46.13
2023-04-21T07:09:33.910Z,46.11
2023-04-21T07:12:02.696Z,45.15
2023-04-21T07:14:30.888Z,43.48
2023-04-21T07:16:59.366Z,43.80
2023-04-21T07:19:27.565Z,42.97
2023-04-21T07:21:55.639Z,43.49
2023-04-21T07:24:23.513Z,43.58
2023-04-21T07:26:52.765Z,43.43
2023-04-21T07:29:20.961Z,43.86
2023-04-21T07:31:48.951Z,42.98
2023-04-21T07:34:17.122Z,42.87
2023-04-21T07:36:44.961Z,41.20
2023-04-21T07:39:12.977Z,41.49
2023-04-21T07:41:40.881Z,41.49
2023-04-21T07:44:10.129Z,41.05
2023-04-21T07:46:38.242Z,40.13
2023-04-21T07:49:06.344Z,41.45
2023-04-21T07:51:34.358Z,41.23
2023-04-21T07:54:02.327Z,41.34
2023-04-21T07:56:30.558Z,40.90
2023-04-21T07:58:58.528Z,40.85
2023-04-21T08:01:27.770Z,40.81
2023-04-21T08:03:55.701Z,40.45
2023-04-21T08:06:23.990Z,41.00
2023-04-21T08:08:51.888Z,42.46
2023-04-21T08:11:19.810Z,42.08
2023-04-21T08:13:47.805Z,41.96
2023-04-21T08:16:15.886Z,42.12
2023-04-21T08:18:45.436Z,41.28
2023-04-21T08:21:14.072Z,40.78
2023-04-21T08:23:42.087Z,40.82
2023-04-21T08:26:10.882Z,38.87
2023-04-21T08:28:38.810Z,39.30
2023-04-21T08:31:06.949Z,39.54
2023-04-21T08:33:35.516Z,39.22
2023-04-21T08:36:15.217Z,38.40
2023-04-21T08:38:50.276Z,38.13
2023-04-21T08:41:18.176Z,37.79
2023-04-21T08:43:46.081Z,38.32
2023-04-21T08:46:14.447Z,37.80
2023-04-21T08:48:42.490Z,37.94
2023-04-21T08:51:11.954Z,37.85
2023-04-21T08:53:42.395Z,37.55
2023-04-21T08:56:11.843Z,37.04
2023-04-21T08:58:41.357Z,36.80
2023-04-21T09:01:09.308Z,37.05
2023-04-21T09:03:37.528Z,36.83
2023-04-21T09:06:07.816Z,35.98
2023-04-21T09:08:39.929Z,36.31
2023-04-21T09:11:07.885Z,36.88
2023-04-21T09:13:36.969Z,34.94
2023-04-21T09:16:08.566Z,35.06
2023-04-21T09:18:40.301Z,35.37
2023-04-21T09:21:10.711Z,36.82
2023-04-21T09:23:48.169Z,34.64
2023-04-21T09:26:17.042Z,34.56
2023-04-21T09:28:45.731Z,33.94
2023-04-21T09:31:19.798Z,32.79
2023-04-21T09:33:57.788Z,32.80
2023-04-21T09:36:29.033Z,32.39
2023-04-21T09:39:25.106Z,31.59
2023-04-21T09:41:47.198Z,31.47
2023-04-21T09:44:15.080Z,31.33
2023-04-21T09:46:45.225Z,31.04
2023-04-21T09:49:15.097Z,32.24
2023-04-21T09:52:14.252Z,32.81
2023-04-21T09:54:35.251Z,31.14
2023-04-21T09:57:05.264Z,31.23
2023-04-21T09:59:36.728Z,30.33
2023-04-21T10:02:07.810Z,31.03
2023-04-21T10:04:38.303Z,29.74
2023-04-21T10:07:07.928Z,29.37
2023-04-21T10:09:41.877Z,30.09
2023-04-21T10:12:10.870Z,29.24
2023-04-21T10:14:38.730Z,30.31
2023-04-21T10:17:09.208Z,30.64
2023-04-21T10:19:40.142Z,29.47
2023-04-21T10:22:09.796Z,30.21
2023-04-21T10:24:43.342Z,30.90
2023-04-21T10:27:12.630Z,31.85
2023-04-21T10:29:55.434Z,30.40
2023-04-21T10:32:33.674Z,29.37
2023-04-21T10:35:01.900Z,30.01
2023-04-21T10:37:32.732Z,30.11
2023-04-21T10:40:01.955Z,30.51
2023-04-21T10:42:34.843Z,29.32
2023-04-21T10:45:12.574Z,30.27
2023-04-21T10:47:46.485Z,29.63
2023-04-21T10:50:20.783Z,28.27
2023-04-21T10:52:54.493Z,29.83
2023-04-21T10:55:23.953Z,28.87
2023-04-21T10:57:51.854Z,28.99
2023-04-21T11:00:22.891Z,28.65
2023-04-21T11:02:58.681Z,30.53
2023-04-21T11:05:36.447Z,29.84
2023-04-21T11:08:12.913Z,28.83
2023-04-21T11:10:54.882Z,28.84
2023-04-21T11:13:24.221Z,28.35
2023-04-21T11:16:03.851Z,29.13
2023-04-21T11:18:38.272Z,30.64
2023-04-21T11:21:17.904Z,29.73
2023-04-21T11:23:56.333Z,29.62
2023-04-21T11:26:38.163Z,29.10
2023-04-21T11:29:08.259Z,29.55
2023-04-21T11:31:37.566Z,29.19
2023-04-21T11:34:07.367Z,28.82
2023-04-21T11:36:35.492Z,29.15
2023-04-21T11:39:08.168Z,28.92
2023-04-21T11:41:40.140Z,29.19
2023-04-21T11:44:08.192Z,30.37
2023-04-21T11:46:37.277Z,28.87
2023-04-21T11:49:06.660Z,29.17
2023-04-21T11:51:36.079Z,29.16
2023-04-21T11:54:06.755Z,29.77
2023-04-21T11:56:38.229Z,29.67
2023-04-21T11:59:09.558Z,30.12
2023-04-21T12:01:44.616Z,29.75
2023-04-21T12:04:18.158Z,29.64
2023-04-21T12:06:47.045Z,28.92
2023-04-21T12:09:19.552Z,29.19
2023-04-21T12:11:51.010Z,29.48
2023-04-21T12:14:19.662Z,29.25
2023-04-21T12:16:50.135Z,29.97
2023-04-21T12:19:23.776Z,30.47
2023-04-21T12:21:54.535Z,29.74
2023-04-21T12:24:22.375Z,29.74
2023-04-21T12:26:51.651Z,30.60
2023-04-21T12:29:19.623Z,31.36
2023-04-21T12:31:47.548Z,30.83
2023-04-21T12:34:16.149Z,31.23
2023-04-21T12:36:44.255Z,30.66
2023-04-21T12:39:13.490Z,30.60
2023-04-21T12:41:41.847Z,30.72
2023-04-21T12:44:11.050Z,30.44
2023-04-21T12:46:39.134Z,29.85
2023-04-21T12:49:07.619Z,31.80
2023-04-21T12:51:35.984Z,32.40
2023-04-21T12:54:03.817Z,32.98
2023-04-21T12:56:31.880Z,32.31
2023-04-21T12:58:59.794Z,30.94
2023-04-21T13:01:29.506Z,30.84
2023-04-21T13:03:57.732Z,30.74
2023-04-21T13:06:26.248Z,30.58
2023-04-21T13:08:54.096Z,29.93
2023-04-21T13:11:21.964Z,31.32
2023-04-21T13:13:49.789Z,30.63
2023-04-21T13:16:17.984Z,30.45
2023-04-21T13:18:47.494Z,30.32
2023-04-21T13:21:15.585Z,30.66
2023-04-21T13:23:43.482Z,30.52
2023-04-21T13:26:11.506Z,29.59
2023-04-21T13:28:39.481Z,29.42
2023-04-21T13:31:07.885Z,29.61
2023-04-21T13:33:36.001Z,29.22
2023-04-21T13:36:05.747Z,29.59
2023-04-21T13:38:34.027Z,30.07
2023-04-21T13:41:02.209Z,30.24
2023-04-21T13:43:30.115Z,30.79
2023-04-21T13:45:58.719Z,30.72
2023-04-21T13:48:26.729Z,30.03
2023-04-21T13:50:54.624Z,30.96
2023-04-21T13:53:23.988Z,30.36
2023-04-21T13:55:52.905Z,30.39
2023-04-21T13:58:20.908Z,29.92
2023-04-21T14:00:48.790Z,30.58
2023-04-21T14:03:16.856Z,30.67
2023-04-21T14:05:44.991Z,30.63
2023-04-21T14:08:13.032Z,29.68
2023-04-21T14:10:42.285Z,29.62
2023-04-21T14:13:17.434Z,30.21
2023-04-21T14:15:55.235Z,30.30
2023-04-21T14:18:23.248Z,30.69
2023-04-21T14:20:51.211Z,30.22
2023-04-21T14:23:19.101Z,29.81
2023-04-21T14:25:48.348Z,30.07
2023-04-21T14:28:16.172Z,30.81
2023-04-21T14:30:44.180Z,31.16
2023-04-21T14:33:12.084Z,30.14
2023-04-21T14:35:40.055Z,30.93
2023-04-21T14:38:08.418Z,30.05
2023-04-21T14:40:36.375Z,30.81
2023-04-21T14:43:05.940Z,29.85
2023-04-21T14:45:34.127Z,30.56
2023-04-21T14:48:02.400Z,31.15
2023-04-21T14:50:30.759Z,29.74
2023-04-21T14:52:58.688Z,30.73
2023-04-21T14:55:26.672Z,30.74
2023-04-21T14:57:54.504Z,30.00
2023-04-21T15:00:24.215Z,30.76
2023-04-21T15:02:52.211Z,29.82
2023-04-21T15:05:20.245Z,30.32
2023-04-21T15:07:48.200Z,29.77
2023-04-21T15:10:16.078Z,29.85
2023-04-21T15:12:44.902Z,29.46
2023-04-21T15:15:13.126Z,30.11
2023-04-21T15:17:42.330Z,30.57
2023-04-21T15:20:11.208Z,31.02
2023-04-21T15:22:39.202Z,30.20
2023-04-21T15:25:07.688Z,29.62
2023-04-21T15:27:36.683Z,29.69
2023-04-21T15:30:05.118Z,30.04
2023-04-21T15:32:32.996Z,30.42
2023-04-21T15:35:02.339Z,30.09
2023-04-21T15:37:30.251Z,29.98
2023-04-21T15:39:58.166Z,30.68
2023-04-21T15:42:26.231Z,30.84
2023-04-21T15:44:54.574Z,30.70
2023-04-21T15:47:23.032Z,29.99
2023-04-21T15:49:50.969Z,30.02
2023-04-21T15:52:20.492Z,30.33
2023-04-21T15:54:48.462Z,30.00
2023-04-21T15:57:16.510Z,29.75
2023-04-21T15:59:44.375Z,30.02
2023-04-21T16:02:12.751Z,30.73
2023-04-21T16:04:41.098Z,30.31
2023-04-21T16:07:09.729Z,31.18
2023-04-21T16:09:38.971Z,30.82
2023-04-21T16:12:10.068Z,31.03
2023-04-21T16:14:53.544Z,30.90
2023-04-21T16:17:26.629Z,30.37
2023-04-21T16:19:55.006Z,30.71
2023-04-21T16:22:22.937Z,30.57
2023-04-21T16:24:53.128Z,30.77
2023-04-21T16:27:21.291Z,30.57
2023-04-21T16:29:50.224Z,30.95
2023-04-21T16:32:18.148Z,30.51
2023-04-21T16:34:46.194Z,31.18
2023-04-21T16:37:14.132Z,30.97
2023-04-21T16:39:42.021Z,30.50
2023-04-21T16:42:11.200Z,31.29
2023-04-21T16:44:39.484Z,31.05
2023-04-21T16:47:08.083Z,30.94
2023-04-21T16:49:35.973Z,31.17
2023-04-21T16:52:03.834Z,31.07
2023-04-21T16:54:31.691Z,31.24
2023-04-21T16:56:59.567Z,31.27
2023-04-21T16:59:30.213Z,31.28
2023-04-21T17:01:58.887Z,30.60
2023-04-21T17:04:26.817Z,30.58
2023-04-21T17:06:54.967Z,30.82
2023-04-21T17:09:22.796Z,30.45
2023-04-21T17:11:50.661Z,30.71
2023-04-21T17:14:18.488Z,30.54
2023-04-21T17:16:47.800Z,30.66
2023-04-21T17:19:15.717Z,31.39
2023-04-21T17:21:43.739Z,31.14
2023-04-21T17:24:11.696Z,31.33
2023-04-21T17:26:39.546Z,31.18
2023-04-21T17:29:08.190Z,31.50
2023-04-21T17:31:36.441Z,31.20
2023-04-21T17:34:06.136Z,31.43
2023-04-21T17:36:34.106Z,31.51
2023-04-21T17:39:01.924Z,31.46
2023-04-21T17:41:29.872Z,31.37
2023-04-21T17:43:57.728Z,31.71
2023-04-21T17:46:26.434Z,31.40
2023-04-21T17:48:54.860Z,31.87
2023-04-21T17:51:24.678Z,31.63
2023-04-21T17:53:53.171Z,31.84
2023-04-21T17:56:21.272Z,31.85
2023-04-21T17:58:49.091Z,31.70
2023-04-21T18:01:16.961Z,31.58
2023-04-21T18:03:45.077Z,31.74
2023-04-21T18:06:15.958Z,31.92
2023-04-21T18:08:45.331Z,32.11
2023-04-21T18:11:13.338Z,32.18
2023-04-21T18:13:41.369Z,32.01
2023-04-21T18:16:09.282Z,32.54
2023-04-21T18:18:37.580Z,32.41
2023-04-21T18:21:05.951Z,32.50
2023-04-21T18:23:33.799Z,32.29
2023-04-21T18:26:03.096Z,32.20
2023-04-21T18:28:31.929Z,31.95
2023-04-21T18:31:00.689Z,31.92
2023-04-21T18:33:28.703Z,32.12
2023-04-21T18:35:56.562Z,32.25
2023-04-21T18:38:24.483Z,32.07
2023-04-21T18:40:52.455Z,32.14
2023-04-21T18:43:22.292Z,32.27
2023-04-21T18:45:50.198Z,32.24
2023-04-21T18:48:18.041Z,32.26
2023-04-21T18:50:46.830Z,32.29
2023-04-21T18:53:14.789Z,31.78
2023-04-21T18:55:42.651Z,31.61
2023-04-21T18:58:10.836Z,31.60
2023-04-21T19:00:40.679Z,31.65
2023-04-21T19:03:09.704Z,31.93
2023-04-21T19:05:40.376Z,31.88
2023-04-21T19:08:10.136Z,31.63
2023-04-21T19:10:38.717Z,32.01
2023-04-21T19:13:06.700Z,31.32
2023-04-21T19:15:35.079Z,31.26
2023-04-21T19:18:04.327Z,31.76
2023-04-21T19:20:32.868Z,31.85
2023-04-21T19:23:00.747Z,32.16
2023-04-21T19:25:28.704Z,32.23
2023-04-21T19:27:56.564Z,32.09
2023-04-21T19:30:24.596Z,32.04
2023-04-21T19:32:52.448Z,32.33
2023-04-21T19:35:22.144Z,32.42
2023-04-21T19:37:50.043Z,32.59
2023-04-21T19:40:17.975Z,32.55
2023-04-21T19:42:45.998Z,32.85
2023-04-21T19:45:14.139Z,32.83
2023-04-21T19:47:42.015Z,33.01
2023-04-21T19:50:11.189Z,32.93
2023-04-21T19:52:40.454Z,33.55
2023-04-21T19:55:08.969Z,33.78
2023-04-21T19:57:36.909Z,33.64
2023-04-21T20:00:09.070Z,33.23
2023-04-21T20:02:40.335Z,33.59
2023-04-21T20:05:09.494Z,33.84
2023-04-21T20:07:37.663Z,33.76
2023-04-21T20:10:08.008Z,33.96
2023-04-21T20:12:36.221Z,34.10
2023-04-21T20:15:05.640Z,34.49
2023-04-21T20:17:33.559Z,34.92
2023-04-21T20:20:01.430Z,34.70
2023-04-21T20:22:29.300Z,34.54
2023-04-21T20:24:58.031Z,35.25
2023-04-21T20:27:27.776Z,35.12
2023-04-21T20:29:56.106Z,35.35
2023-04-21T20:32:23.968Z,34.93
2023-04-21T20:34:53.368Z,35.49
2023-04-21T20:37:23.023Z,35.53
2023-04-21T20:39:51.152Z,35.46
2023-04-21T20:42:19.287Z,35.58
2023-04-21T20:44:48.453Z,35.46
2023-04-21T20:47:17.515Z,35.82
2023-04-21T20:49:47.291Z,36.06
2023-04-21T20:52:15.294Z,35.88
2023-04-21T20:54:43.164Z,36.33
2023-04-21T20:57:12.059Z,36.05
2023-04-21T20:59:40.199Z,36.44
2023-04-21T21:02:09.899Z,36.45
2023-04-21T21:04:37.984Z,36.64
2023-04-21T21:07:06.426Z,36.95
2023-04-21T21:09:34.423Z,37.03
2023-04-21T21:12:02.374Z,36.76
2023-04-21T21:14:30.354Z,36.96
2023-04-21T21:16:58.468Z,37.12
2023-04-21T21:19:27.899Z,36.94
2023-04-21T21:21:55.751Z,36.95
2023-04-21T21:24:24.899Z,37.27
2023-04-21T21:26:52.761Z,37.52
2023-04-21T21:29:20.625Z,37.80
2023-04-21T21:31:48.533Z,37.83
2023-04-21T21:34:16.424Z,37.77
2023-04-21T21:36:45.637Z,38.26
2023-04-21T21:39:13.537Z,37.91
2023-04-21T21:41:41.380Z,38.03
2023-04-21T21:44:10.424Z,38.45
2023-04-21T21:46:38.361Z,38.34
2023-04-21T21:49:06.280Z,38.63
2023-04-21T21:51:34.156Z,39.15
2023-04-21T21:54:03.362Z,38.88
2023-04-21T21:56:31.264Z,38.69
2023-04-21T21:58:59.528Z,38.63
2023-04-21T22:01:27.459Z,38.83
2023-04-21T22:03:55.464Z,38.87
2023-04-21T22:06:24.449Z,38.95
2023-04-21T22:08:52.715Z,38.82
2023-04-21T22:11:22.055Z,39.32
2023-04-21T22:13:49.891Z,39.58
2023-04-21T22:16:18.605Z,39.45
2023-04-21T22:18:48.445Z,39.05
2023-04-21T22:21:16.396Z,39.41
2023-04-21T22:23:44.280Z,39.35
2023-04-21T22:26:12.286Z,39.42
2023-04-21T22:28:43.525Z,39.60
2023-04-21T22:31:11.583Z,39.61
2023-04-21T22:33:39.502Z,39.61
2023-04-21T22:36:09.797Z,40.25
2023-04-21T22:38:38.350Z,40.09
2023-04-21T22:41:06.497Z,40.81
2023-04-21T22:43:34.367Z,40.18
2023-04-21T22:46:03.643Z,40.13
2023-04-21T22:48:32.781Z,41.08
2023-04-21T22:51:01.473Z,40.30
2023-04-21T22:53:29.431Z,40.52
2023-04-21T22:55:57.309Z,40.65
2023-04-21T22:58:26.075Z,40.48
2023-04-21T23:00:54.064Z,40.54
2023-04-21T23:03:23.765Z,40.56
2023-04-21T23:05:51.869Z,40.53
2023-04-21T23:08:19.766Z,40.52
2023-04-21T23:10:47.653Z,42.74
2023-04-21T23:13:15.560Z,40.88
2023-04-21T23:15:43.412Z,41.01
2023-04-21T23:18:11.328Z,41.11
2023-04-21T23:20:40.767Z,42.02
2023-04-21T23:23:08.648Z,40.87
2023-04-21T23:25:36.563Z,41.18
2023-04-21T23:28:04.440Z,41.21
2023-04-21T23:30:32.354Z,41.53
2023-04-21T23:33:00.870Z,41.60
2023-04-21T23:35:28.938Z,41.29
2023-04-21T23:37:58.398Z,42.13
2023-04-21T23:40:26.350Z,41.59
2023-04-21T23:42:54.213Z,41.30
2023-04-21T23:45:22.231Z,41.29
2023-04-21T23:47:50.078Z,41.43
2023-04-21T23:50:18.054Z,41.47
2023-04-21T23:52:46.077Z,41.57
2023-04-21T23:55:16.181Z,42.12
2023-04-21T23:57:46.774Z,41.80
